createdAt,value
2023-06-27T00:00:15.843Z,18.66
2023-06-27T00:01:15.828Z,18.62
2023-06-27T00:02:15.882Z,18.68
2023-06-27T00:03:15.937Z,18.68
2023-06-27T00:04:15.775Z,18.65
2023-06-27T00:05:15.770Z,18.70
2023-06-27T00:06:15.825Z,18.58
2023-06-27T00:07:15.795Z,18.65
2023-06-27T00:08:15.737Z,18.70
2023-06-27T00:09:15.752Z,18.59
2023-06-27T00:10:15.766Z,18.58
2023-06-27T00:11:15.700Z,18.63
2023-06-27T00:12:15.713Z,18.62
2023-06-27T00:13:15.681Z,18.59
2023-06-27T00:14:15.811Z,18.60
2023-06-27T00:15:15.659Z,18.45
2023-06-27T00:16:15.644Z,18.55
2023-06-27T00:17:15.635Z,18.44
2023-06-27T00:18:15.671Z,18.50
2023-06-27T00:19:15.607Z,18.53
2023-06-27T00:20:15.603Z,18.45
2023-06-27T00:21:15.582Z,18.50
2023-06-27T00:22:15.569Z,18.44
2023-06-27T00:23:15.578Z,18.45
2023-06-27T00:24:15.562Z,18.50
2023-06-27T00:25:15.607Z,18.55
2023-06-27T00:26:15.638Z,18.53
2023-06-27T00:27:15.516Z,18.52
2023-06-27T00:28:15.500Z,18.50
2023-06-27T00:29:15.518Z,18.50
2023-06-27T00:30:15.517Z,18.41
2023-06-27T00:31:15.547Z,18.41
2023-06-27T00:32:15.467Z,18.41
2023-06-27T00:33:15.445Z,18.38
2023-06-27T00:34:15.442Z,18.38
2023-06-27T00:35:15.420Z,18.35
2023-06-27T00:36:15.458Z,18.37
2023-06-27T00:37:15.401Z,18.37
2023-06-27T00:38:15.390Z,18.37
2023-06-27T00:39:15.383Z,18.40
2023-06-27T00:40:15.407Z,18.38
2023-06-27T00:41:15.371Z,18.38
2023-06-27T00:42:15.404Z,18.31
2023-06-27T00:43:15.336Z,18.38
2023-06-27T00:44:15.319Z,18.34
2023-06-27T00:45:15.310Z,18.41
2023-06-27T00:46:15.365Z,18.38
2023-06-27T00:47:15.286Z,18.38
2023-06-27T00:48:15.305Z,18.22
2023-06-27T00:49:15.281Z,18.37
2023-06-27T00:50:15.366Z,18.29
2023-06-27T00:51:15.245Z,18.29
2023-06-27T00:52:15.231Z,18.28
2023-06-27T00:53:15.214Z,18.26
2023-06-27T00:54:15.241Z,18.28
2023-06-27T00:55:15.222Z,18.22
2023-06-27T00:56:15.192Z,18.31
2023-06-27T00:57:15.200Z,18.20
2023-06-27T00:58:15.165Z,18.25
2023-06-27T00:59:15.153Z,18.25
2023-06-27T01:00:15.187Z,18.26
2023-06-27T01:01:15.127Z,18.31
2023-06-27T01:02:15.119Z,18.28
2023-06-27T01:03:15.214Z,18.20
2023-06-27T01:04:15.104Z,18.26
2023-06-27T01:05:15.088Z,18.26
2023-06-27T01:06:15.083Z,18.23
2023-06-27T01:07:15.147Z,18.23
2023-06-27T01:08:15.044Z,18.23
2023-06-27T01:09:15.035Z,18.22
2023-06-27T01:10:15.055Z,18.13
2023-06-27T01:11:15.068Z,18.10
2023-06-27T01:12:15.017Z,18.10
2023-06-27T01:13:15.053Z,18.11
2023-06-27T01:14:14.980Z,18.19
2023-06-27T01:15:15.057Z,18.13
2023-06-27T01:16:14.952Z,18.05
2023-06-27T01:17:14.956Z,18.10
2023-06-27T01:18:14.966Z,18.01
2023-06-27T01:19:14.929Z,18.08
2023-06-27T01:20:14.968Z,18.05
2023-06-27T01:21:14.933Z,18.05
2023-06-27T01:22:14.938Z,18.01
2023-06-27T01:23:14.880Z,18.01
2023-06-27T01:24:14.932Z,17.98
2023-06-27T01:25:14.857Z,17.97
2023-06-27T01:26:14.841Z,18.00
2023-06-27T01:27:14.833Z,17.94
2023-06-27T01:28:14.829Z,17.92
2023-06-27T01:29:14.833Z,17.92
2023-06-27T01:30:14.824Z,17.94
2023-06-27T01:31:14.835Z,17.98
2023-06-27T01:32:14.780Z,18.01
2023-06-27T01:33:14.763Z,17.90
2023-06-27T01:34:14.756Z,17.98
2023-06-27T01:35:14.746Z,17.89
2023-06-27T01:36:14.767Z,17.94
2023-06-27T01:37:14.723Z,17.95
2023-06-27T01:38:14.726Z,17.92
2023-06-27T01:39:14.732Z,17.94
2023-06-27T01:40:14.685Z,17.92
2023-06-27T01:41:14.698Z,17.92
2023-06-27T01:42:14.678Z,17.89
2023-06-27T01:43:14.662Z,17.95
2023-06-27T01:44:14.668Z,17.86
2023-06-27T01:45:14.666Z,17.94
2023-06-27T01:46:14.859Z,17.89
2023-06-27T01:47:14.638Z,17.87
2023-06-27T01:48:14.616Z,17.95
2023-06-27T01:49:14.608Z,17.98
2023-06-27T01:50:14.589Z,17.85
2023-06-27T01:51:14.565Z,17.94
2023-06-27T01:52:14.558Z,17.87
2023-06-27T01:53:14.540Z,17.83
2023-06-27T01:54:14.565Z,17.89
2023-06-27T01:55:14.536Z,17.86
2023-06-27T01:56:14.510Z,17.83
2023-06-27T01:57:14.504Z,17.87
2023-06-27T01:58:14.485Z,17.90
2023-06-27T01:59:14.469Z,17.79
2023-06-27T02:00:14.503Z,17.83
2023-06-27T02:01:14.547Z,17.86
2023-06-27T02:02:14.453Z,17.80
2023-06-27T02:03:14.584Z,17.76
2023-06-27T02:04:14.424Z,17.82
2023-06-27T02:05:14.422Z,17.71
2023-06-27T02:06:14.447Z,17.83
2023-06-27T02:07:14.408Z,17.86
2023-06-27T02:08:14.402Z,17.72
2023-06-27T02:09:14.356Z,17.71
2023-06-27T02:10:14.368Z,17.70
2023-06-27T02:11:14.346Z,17.71
2023-06-27T02:12:14.353Z,17.65
2023-06-27T02:13:14.309Z,17.70
2023-06-27T02:14:14.362Z,17.54
2023-06-27T02:15:14.307Z,17.49
2023-06-27T02:16:14.283Z,17.63
2023-06-27T02:17:14.316Z,17.54
2023-06-27T02:18:14.286Z,17.51
2023-06-27T02:19:14.255Z,17.49
2023-06-27T02:20:14.259Z,17.51
2023-06-27T02:21:14.229Z,17.59
2023-06-27T02:22:14.244Z,17.51
2023-06-27T02:23:14.200Z,17.41
2023-06-27T02:24:14.219Z,17.48
2023-06-27T02:25:14.175Z,17.41
2023-06-27T02:26:14.197Z,17.38
2023-06-27T02:27:14.203Z,17.48
2023-06-27T02:28:14.141Z,17.44
2023-06-27T02:29:14.127Z,17.42
2023-06-27T02:30:14.224Z,17.46
2023-06-27T02:31:14.158Z,17.42
2023-06-27T02:32:14.103Z,17.44
2023-06-27T02:33:14.117Z,17.44
2023-06-27T02:34:14.070Z,17.39
2023-06-27T02:35:14.065Z,17.39
2023-06-27T02:36:14.157Z,17.36
2023-06-27T02:37:14.042Z,17.39
2023-06-27T02:38:14.030Z,17.41
2023-06-27T02:39:14.037Z,17.39
2023-06-27T02:40:14.004Z,17.41
2023-06-27T02:41:13.993Z,17.42
2023-06-27T02:42:14.009Z,17.42
2023-06-27T02:43:13.989Z,17.45
2023-06-27T02:44:13.961Z,17.38
2023-06-27T02:45:13.948Z,17.39
2023-06-27T02:46:13.965Z,17.38
2023-06-27T02:47:13.938Z,17.44
2023-06-27T02:48:14.101Z,17.46
2023-06-27T02:49:13.928Z,17.39
2023-06-27T02:50:13.903Z,17.45
2023-06-27T02:51:13.879Z,17.48
2023-06-27T02:52:13.869Z,17.51
2023-06-27T02:53:13.854Z,17.45
2023-06-27T02:54:13.879Z,17.38
2023-06-27T02:55:13.848Z,17.48
2023-06-27T02:56:13.820Z,17.51
2023-06-27T02:57:13.806Z,17.48
2023-06-27T02:58:13.796Z,17.48
2023-06-27T02:59:13.782Z,17.49
2023-06-27T03:00:13.797Z,17.46
2023-06-27T03:01:13.772Z,17.49
2023-06-27T03:02:13.752Z,17.48
2023-06-27T03:03:13.897Z,17.49
2023-06-27T03:04:19.605Z,17.41
2023-06-27T03:05:14.780Z,17.36
2023-06-27T03:06:13.705Z,17.51
2023-06-27T03:07:13.719Z,17.56
2023-06-27T03:08:13.689Z,17.48
2023-06-27T03:09:13.668Z,17.48
2023-06-27T03:10:13.683Z,17.51
2023-06-27T03:11:13.686Z,17.48
2023-06-27T03:12:13.673Z,17.44
2023-06-27T03:13:13.630Z,17.46
2023-06-27T03:14:13.615Z,17.44
2023-06-27T03:15:13.664Z,17.46
2023-06-27T03:16:13.594Z,17.52
2023-06-27T03:17:13.743Z,17.54
2023-06-27T03:18:13.577Z,17.51
2023-06-27T03:19:13.581Z,17.60
2023-06-27T03:20:13.568Z,17.70
2023-06-27T03:21:13.597Z,17.71
2023-06-27T03:22:13.564Z,17.74
2023-06-27T03:23:13.535Z,17.71
2023-06-27T03:24:13.506Z,17.79
2023-06-27T03:25:13.487Z,17.82
2023-06-27T03:26:13.478Z,17.87
2023-06-27T03:27:13.548Z,17.97
2023-06-27T03:28:13.459Z,18.04
2023-06-27T03:29:13.636Z,18.03
2023-06-27T03:30:13.440Z,18.11
2023-06-27T03:31:13.420Z,18.11
2023-06-27T03:32:13.468Z,18.13
2023-06-27T03:33:13.408Z,18.25
2023-06-27T03:34:13.387Z,18.19
2023-06-27T03:35:13.426Z,18.23
2023-06-27T03:36:13.370Z,18.31
2023-06-27T03:37:13.376Z,18.34
2023-06-27T03:38:13.342Z,18.38
2023-06-27T03:39:13.328Z,18.43
2023-06-27T03:40:13.321Z,18.45
2023-06-27T03:41:13.340Z,18.45
2023-06-27T03:42:13.295Z,18.47
2023-06-27T03:43:13.283Z,18.49
2023-06-27T03:44:13.347Z,18.49
2023-06-27T03:45:13.266Z,18.56
2023-06-27T03:46:13.250Z,18.66
2023-06-27T03:47:13.267Z,18.55
2023-06-27T03:48:13.243Z,18.68
2023-06-27T03:49:13.298Z,18.66
2023-06-27T03:50:13.219Z,18.66
2023-06-27T03:51:13.203Z,18.74
2023-06-27T03:52:13.193Z,18.83
2023-06-27T03:53:13.323Z,18.84
2023-06-27T03:54:13.159Z,18.83
2023-06-27T03:55:13.191Z,18.89
2023-06-27T03:56:13.138Z,18.89
2023-06-27T03:57:13.169Z,18.93
2023-06-27T03:58:13.154Z,18.95
2023-06-27T03:59:13.167Z,19.04
2023-06-27T04:00:13.091Z,19.02
2023-06-27T04:01:13.083Z,18.99
2023-06-27T04:02:13.084Z,19.14
2023-06-27T04:03:13.219Z,19.19
2023-06-27T04:04:14.995Z,19.26
2023-06-27T04:05:13.211Z,19.31
2023-06-27T04:06:13.030Z,19.40
2023-06-27T04:07:13.072Z,19.40
2023-06-27T04:08:13.010Z,19.45
2023-06-27T04:09:13.020Z,19.52
2023-06-27T04:10:12.981Z,19.56
2023-06-27T04:11:13.011Z,19.69
2023-06-27T04:12:12.963Z,19.82
2023-06-27T04:13:12.951Z,19.86
2023-06-27T04:14:12.934Z,19.88
2023-06-27T04:15:12.927Z,19.94
2023-06-27T04:16:12.914Z,20.00
2023-06-27T04:17:13.074Z,19.92
2023-06-27T04:18:12.958Z,19.94
2023-06-27T04:19:12.878Z,20.00
2023-06-27T04:20:12.881Z,20.02
2023-06-27T04:21:12.859Z,20.03
2023-06-27T04:22:12.853Z,20.09
2023-06-27T04:23:12.886Z,20.06
2023-06-27T04:24:12.846Z,20.11
2023-06-27T04:25:12.840Z,20.16
2023-06-27T04:26:12.800Z,20.13
2023-06-27T04:27:12.805Z,20.03
2023-06-27T04:28:12.779Z,20.00
2023-06-27T04:29:12.816Z,20.03
2023-06-27T04:30:12.756Z,19.96
2023-06-27T04:31:12.785Z,19.94
2023-06-27T04:32:12.733Z,20.03
2023-06-27T04:33:12.720Z,19.94
2023-06-27T04:34:12.710Z,19.99
2023-06-27T04:35:12.752Z,19.99
2023-06-27T04:36:12.688Z,20.03
2023-06-27T04:37:12.675Z,19.94
2023-06-27T04:38:14.001Z,20.02
2023-06-27T04:39:12.766Z,20.03
2023-06-27T04:40:12.645Z,20.09
2023-06-27T04:41:12.681Z,19.96
2023-06-27T04:42:12.619Z,19.94
2023-06-27T04:43:12.610Z,19.84
2023-06-27T04:44:12.599Z,19.88
2023-06-27T04:45:12.600Z,19.95
2023-06-27T04:46:12.659Z,19.92
2023-06-27T04:47:12.615Z,19.89
2023-06-27T04:48:12.558Z,19.88
2023-06-27T04:49:12.541Z,19.91
2023-06-27T04:50:12.532Z,19.79
2023-06-27T04:51:12.520Z,19.86
2023-06-27T04:52:12.576Z,19.73
2023-06-27T04:53:12.531Z,19.74
2023-06-27T04:54:12.497Z,19.76
2023-06-27T04:55:12.472Z,19.74
2023-06-27T04:56:12.466Z,19.73
2023-06-27T04:57:13.513Z,19.79
2023-06-27T04:58:12.478Z,19.76
2023-06-27T04:59:12.459Z,19.74
2023-06-27T05:00:12.434Z,19.71
2023-06-27T05:01:12.467Z,19.71
2023-06-27T05:02:12.396Z,19.69
2023-06-27T05:03:12.428Z,19.74
2023-06-27T05:04:12.369Z,19.62
2023-06-27T05:05:12.638Z,19.71
2023-06-27T05:06:12.354Z,19.69
2023-06-27T05:07:12.424Z,19.69
2023-06-27T05:08:12.356Z,19.74
2023-06-27T05:09:12.316Z,19.70
2023-06-27T05:10:12.306Z,19.67
2023-06-27T05:11:12.330Z,19.59
2023-06-27T05:12:12.279Z,19.55
2023-06-27T05:13:12.304Z,19.52
2023-06-27T05:14:12.254Z,19.64
2023-06-27T05:15:12.246Z,19.64
2023-06-27T05:16:12.231Z,19.62
2023-06-27T05:17:12.249Z,19.55
2023-06-27T05:18:12.209Z,19.48
2023-06-27T05:19:12.196Z,19.52
2023-06-27T05:20:12.186Z,19.45
2023-06-27T05:21:12.181Z,19.49
2023-06-27T05:22:12.162Z,19.41
2023-06-27T05:23:12.178Z,19.41
2023-06-27T05:24:12.145Z,19.34
2023-06-27T05:25:12.232Z,19.40
2023-06-27T05:26:12.120Z,19.39
2023-06-27T05:27:12.101Z,19.48
2023-06-27T05:28:12.102Z,19.40
2023-06-27T05:29:12.143Z,19.52
2023-06-27T05:30:12.088Z,19.55
2023-06-27T05:31:12.101Z,19.48
2023-06-27T05:32:12.049Z,19.44
2023-06-27T05:33:12.103Z,19.36
2023-06-27T05:34:12.038Z,19.29
2023-06-27T05:35:12.091Z,19.24
2023-06-27T05:36:12.011Z,19.19
2023-06-27T05:37:11.994Z,19.11
2023-06-27T05:38:11.991Z,19.15
2023-06-27T05:39:11.971Z,19.18
2023-06-27T05:40:11.957Z,19.12
2023-06-27T05:41:12.053Z,19.21
2023-06-27T05:42:11.981Z,19.26
2023-06-27T05:43:11.929Z,19.27
2023-06-27T05:44:11.916Z,19.29
2023-06-27T05:45:11.943Z,19.31
2023-06-27T05:46:11.889Z,19.37
2023-06-27T05:47:11.917Z,19.52
2023-06-27T05:48:11.878Z,19.63
2023-06-27T05:49:11.866Z,19.77
2023-06-27T05:50:11.851Z,19.89
2023-06-27T05:51:11.838Z,19.89
2023-06-27T05:52:11.830Z,20.07
2023-06-27T05:53:11.858Z,20.19
2023-06-27T05:54:11.803Z,20.36
2023-06-27T05:55:11.811Z,20.39
2023-06-27T05:56:11.788Z,20.52
2023-06-27T05:57:11.769Z,20.62
2023-06-27T05:58:11.787Z,20.70
2023-06-27T05:59:11.849Z,20.74
2023-06-27T06:00:11.768Z,20.88
2023-06-27T06:01:11.757Z,20.90
2023-06-27T06:02:11.730Z,21.05
2023-06-27T06:03:11.838Z,21.03
2023-06-27T06:04:11.741Z,21.32
2023-06-27T06:05:11.723Z,21.43
2023-06-27T06:06:11.671Z,21.51
2023-06-27T06:07:11.718Z,21.67
2023-06-27T06:08:11.646Z,21.79
2023-06-27T06:09:11.633Z,21.82
2023-06-27T06:10:11.651Z,21.93
2023-06-27T06:11:11.652Z,22.10
2023-06-27T06:12:11.604Z,22.26
2023-06-27T06:13:11.593Z,22.38
2023-06-27T06:14:11.576Z,22.50
2023-06-27T06:15:11.565Z,22.65
2023-06-27T06:16:11.553Z,22.73
2023-06-27T06:17:11.643Z,22.76
2023-06-27T06:18:11.534Z,22.98
2023-06-27T06:19:11.540Z,23.08
2023-06-27T06:20:11.510Z,23.20
2023-06-27T06:21:11.512Z,23.21
2023-06-27T06:22:11.490Z,23.36
2023-06-27T06:23:11.546Z,23.55
2023-06-27T06:24:11.463Z,23.59
2023-06-27T06:25:11.479Z,23.77
2023-06-27T06:26:11.446Z,23.83
2023-06-27T06:27:11.429Z,24.06
2023-06-27T06:28:11.417Z,24.26
2023-06-27T06:29:11.569Z,24.43
2023-06-27T06:30:11.397Z,24.47
2023-06-27T06:31:11.428Z,24.68
2023-06-27T06:32:11.371Z,24.61
2023-06-27T06:33:11.506Z,24.66
2023-06-27T06:34:11.354Z,24.65
2023-06-27T06:35:11.385Z,24.69
2023-06-27T06:36:11.326Z,24.74
2023-06-27T06:37:11.414Z,24.76
2023-06-27T06:38:11.302Z,24.81
2023-06-27T06:39:11.320Z,24.88
2023-06-27T06:40:11.284Z,24.89
2023-06-27T06:41:11.365Z,24.93
2023-06-27T06:42:11.260Z,24.89
2023-06-27T06:43:11.955Z,24.98
2023-06-27T06:44:11.233Z,24.98
2023-06-27T06:45:11.961Z,25.01
2023-06-27T06:46:11.292Z,25.14
2023-06-27T06:47:11.238Z,25.21
2023-06-27T06:48:11.195Z,25.46
2023-06-27T06:49:11.233Z,25.51
2023-06-27T06:50:11.175Z,25.68
2023-06-27T06:51:11.200Z,25.81
2023-06-27T06:52:11.185Z,25.85
2023-06-27T06:53:11.195Z,25.88
2023-06-27T06:54:11.146Z,25.87
2023-06-27T06:55:11.143Z,25.99
2023-06-27T06:56:11.120Z,26.03
2023-06-27T06:57:11.096Z,26.16
2023-06-27T06:58:12.002Z,26.16
2023-06-27T06:59:11.108Z,26.22
2023-06-27T07:00:11.071Z,26.23
2023-06-27T07:01:11.097Z,26.31
2023-06-27T07:02:11.045Z,26.28
2023-06-27T07:03:11.116Z,26.33
2023-06-27T07:04:11.094Z,26.36
2023-06-27T07:05:11.168Z,26.21
2023-06-27T07:06:11.017Z,26.28
2023-06-27T07:07:11.083Z,26.31
2023-06-27T07:08:10.985Z,26.28
2023-06-27T07:09:10.972Z,26.38
2023-06-27T07:10:10.973Z,26.44
2023-06-27T07:11:10.973Z,26.60
2023-06-27T07:12:10.933Z,26.70
2023-06-27T07:13:10.916Z,26.78
2023-06-27T07:14:10.902Z,26.90
2023-06-27T07:15:10.899Z,26.97
2023-06-27T07:16:10.921Z,26.99
2023-06-27T07:17:10.887Z,27.18
2023-06-27T07:18:10.857Z,27.15
2023-06-27T07:19:11.419Z,27.18
2023-06-27T07:20:11.488Z,27.26
2023-06-27T07:21:10.881Z,27.22
2023-06-27T07:22:10.819Z,27.26
2023-06-27T07:23:10.835Z,27.27
2023-06-27T07:24:10.808Z,27.27
2023-06-27T07:25:10.783Z,27.22
2023-06-27T07:26:10.771Z,27.18
2023-06-27T07:27:10.782Z,27.20
2023-06-27T07:28:10.771Z,27.25
2023-06-27T07:29:10.786Z,27.30
2023-06-27T07:30:10.748Z,27.51
2023-06-27T07:31:10.821Z,27.51
2023-06-27T07:32:10.728Z,27.63
2023-06-27T07:33:10.701Z,27.52
2023-06-27T07:34:10.679Z,27.55
2023-06-27T07:35:10.781Z,27.52
2023-06-27T07:36:10.655Z,27.51
2023-06-27T07:37:10.709Z,27.55
2023-06-27T07:38:10.664Z,27.51
2023-06-27T07:39:10.625Z,27.52
2023-06-27T07:40:10.608Z,27.51
2023-06-27T07:41:10.645Z,27.64
2023-06-27T07:43:36.165Z,27.77
2023-06-27T07:44:36.117Z,27.67
2023-06-27T07:45:36.080Z,27.58
2023-06-27T07:46:36.134Z,27.60
2023-06-27T07:47:37.213Z,27.63
2023-06-27T07:48:36.039Z,27.67
2023-06-27T07:49:36.549Z,27.71
2023-06-27T07:50:36.017Z,27.82
2023-06-27T07:51:36.006Z,27.78
2023-06-27T07:52:36.106Z,27.85
2023-06-27T07:55:24.232Z,27.80
2023-06-27T07:56:31.000Z,27.58
2023-06-27T07:57:23.950Z,27.44
2023-06-27T07:58:24.145Z,27.30
2023-06-27T07:59:23.924Z,27.35
2023-06-27T08:00:23.952Z,27.36
2023-06-27T08:01:24.568Z,27.42
2023-06-27T08:02:24.028Z,27.55
2023-06-27T08:03:25.070Z,27.54
2023-06-27T08:04:24.172Z,27.42
2023-06-27T08:05:24.534Z,27.49
2023-06-27T08:06:23.931Z,27.42
2023-06-27T08:07:24.564Z,27.35
2023-06-27T08:08:23.880Z,27.22
2023-06-27T08:09:24.529Z,27.18
2023-06-27T08:10:23.879Z,27.14
2023-06-27T08:11:24.609Z,27.14
2023-06-27T08:12:24.107Z,27.00
2023-06-27T08:13:23.816Z,27.14
2023-06-27T08:14:23.900Z,27.18
2023-06-27T08:15:23.748Z,27.33
2023-06-27T08:16:24.296Z,27.40
2023-06-27T08:17:23.994Z,27.45
2023-06-27T08:18:30.786Z,27.47
2023-06-27T08:20:51.496Z,27.35
2023-06-27T08:21:51.560Z,27.30
2023-06-27T08:22:51.476Z,27.35
2023-06-27T08:23:51.543Z,27.35
2023-06-27T08:24:51.420Z,27.40
2023-06-27T08:25:51.707Z,27.55
2023-06-27T08:26:51.371Z,27.58
2023-06-27T08:27:51.409Z,27.68
2023-06-27T08:28:51.353Z,27.80
2023-06-27T08:29:51.368Z,27.82
2023-06-27T08:30:51.425Z,27.90
2023-06-27T08:31:51.459Z,27.96
2023-06-27T08:32:51.506Z,28.08
2023-06-27T08:33:51.349Z,28.11
2023-06-27T08:34:51.355Z,28.20
2023-06-27T08:35:51.297Z,28.20
2023-06-27T08:36:51.490Z,28.19
2023-06-27T08:37:51.389Z,28.22
2023-06-27T08:38:51.241Z,28.11
2023-06-27T08:39:51.373Z,28.25
2023-06-27T08:40:51.250Z,28.17
2023-06-27T08:41:51.374Z,28.14
2023-06-27T08:42:51.224Z,28.05
2023-06-27T08:43:51.391Z,28.00
2023-06-27T08:44:51.185Z,27.96
2023-06-27T08:45:51.348Z,28.08
2023-06-27T08:46:51.192Z,28.01
2023-06-27T08:47:51.403Z,28.02
2023-06-27T08:48:51.144Z,28.07
2023-06-27T08:49:51.150Z,27.96
2023-06-27T08:50:51.108Z,28.02
2023-06-27T08:51:51.193Z,27.93
2023-06-27T08:52:51.084Z,27.95
2023-06-27T08:53:51.080Z,27.82
2023-06-27T08:54:51.231Z,27.83
2023-06-27T08:55:51.085Z,27.65
2023-06-27T08:56:51.039Z,27.75
2023-06-27T08:57:51.806Z,27.75
2023-06-27T08:58:51.753Z,27.87
2023-06-27T08:59:51.344Z,27.86
2023-06-27T09:00:51.203Z,27.96
2023-06-27T09:01:51.442Z,27.93
2023-06-27T09:02:51.041Z,27.95
2023-06-27T09:03:51.146Z,28.05
2023-06-27T09:04:50.966Z,28.17
2023-06-27T09:05:50.965Z,28.20
2023-06-27T09:06:51.008Z,28.33
2023-06-27T09:07:51.016Z,28.45
2023-06-27T09:08:51.088Z,28.48
2023-06-27T09:09:51.167Z,28.60
2023-06-27T09:10:51.989Z,28.67
2023-06-27T09:11:51.050Z,28.67
2023-06-27T09:12:50.878Z,28.63
2023-06-27T09:13:50.858Z,28.56
2023-06-27T09:14:50.853Z,28.32
2023-06-27T09:15:51.627Z,28.29
2023-06-27T09:16:51.147Z,28.08
2023-06-27T09:17:50.888Z,27.92
2023-06-27T09:20:29.764Z,27.74
2023-06-27T09:21:30.298Z,27.70
2023-06-27T09:22:29.863Z,27.60
2023-06-27T09:23:29.740Z,27.52
2023-06-27T09:24:29.740Z,27.44
2023-06-27T09:25:32.437Z,27.39
2023-06-27T09:26:29.687Z,27.18
2023-06-27T09:27:30.130Z,27.20
2023-06-27T09:28:29.761Z,27.18
2023-06-27T09:33:14.322Z,26.99
2023-06-27T09:34:14.430Z,26.78
2023-06-27T09:35:14.245Z,26.71
2023-06-27T09:38:46.802Z,26.44
2023-06-27T09:39:43.743Z,26.41
2023-06-27T09:40:43.855Z,26.47
2023-06-27T09:41:43.695Z,26.33
2023-06-27T09:42:43.759Z,26.38
2023-06-27T09:43:44.629Z,26.41
2023-06-27T09:44:43.722Z,26.48
2023-06-27T09:45:44.399Z,26.56
2023-06-27T09:46:43.611Z,26.59
2023-06-27T09:47:45.086Z,26.71
2023-06-27T09:48:43.610Z,26.77
2023-06-27T09:49:45.187Z,26.84
2023-06-27T09:50:43.808Z,26.84
2023-06-27T09:51:43.547Z,26.90
2023-06-27T09:52:44.409Z,27.14
2023-06-27T09:55:22.096Z,27.36
2023-06-27T09:56:22.072Z,27.42
2023-06-27T09:57:22.785Z,27.42
2023-06-27T10:01:05.119Z,27.96
2023-06-27T10:02:05.075Z,27.95
2023-06-27T10:07:16.128Z,28.27
2023-06-27T10:10:14.082Z,28.54
2023-06-27T10:11:14.134Z,28.66
2023-06-27T10:12:13.992Z,28.69
2023-06-27T10:13:14.067Z,28.89
2023-06-27T10:14:13.966Z,29.01
2023-06-27T10:15:13.981Z,29.10
2023-06-27T10:16:13.990Z,29.23
2023-06-27T10:17:13.932Z,29.50
2023-06-27T10:18:13.921Z,29.65
2023-06-27T10:19:14.120Z,29.82
2023-06-27T10:20:13.903Z,29.95
2023-06-27T10:21:13.939Z,30.12
2023-06-27T10:22:13.896Z,30.16
2023-06-27T10:23:13.921Z,30.25
2023-06-27T10:24:13.867Z,30.43
2023-06-27T10:25:13.948Z,30.39
2023-06-27T10:26:13.913Z,30.48
2023-06-27T10:27:13.827Z,30.27
2023-06-27T10:28:13.815Z,29.98
2023-06-27T10:29:13.802Z,29.79
2023-06-27T10:30:13.912Z,29.54
2023-06-27T10:31:13.981Z,29.20
2023-06-27T10:32:13.961Z,28.86
2023-06-27T10:33:13.774Z,28.70
2023-06-27T10:34:13.748Z,28.29
2023-06-27T10:35:13.732Z,27.92
2023-06-27T10:36:13.925Z,27.52
2023-06-27T10:37:13.787Z,27.18
2023-06-27T10:38:13.698Z,26.81
2023-06-27T10:39:13.684Z,26.56
2023-06-27T10:40:13.686Z,26.19
2023-06-27T10:41:13.686Z,25.93
2023-06-27T10:42:13.672Z,25.63
2023-06-27T10:43:13.673Z,25.26
2023-06-27T10:44:13.629Z,24.99
2023-06-27T10:45:13.636Z,24.74
2023-06-27T10:46:13.618Z,24.61
2023-06-27T10:47:13.600Z,24.38
2023-06-27T10:48:13.643Z,24.13
2023-06-27T10:49:13.614Z,23.87
2023-06-27T10:50:13.707Z,23.71
2023-06-27T10:51:13.551Z,23.50
2023-06-27T10:52:13.542Z,23.31
2023-06-27T10:53:13.528Z,23.20
2023-06-27T10:54:13.533Z,22.96
2023-06-27T10:55:13.535Z,22.87
2023-06-27T10:56:13.498Z,22.73
2023-06-27T10:57:13.482Z,22.54
2023-06-27T10:58:13.473Z,22.39
2023-06-27T10:59:13.535Z,22.26
2023-06-27T11:00:13.461Z,21.95
2023-06-27T11:01:13.483Z,21.70
2023-06-27T11:02:13.490Z,21.45
2023-06-27T11:03:13.660Z,21.03
2023-06-27T11:04:13.693Z,20.78
2023-06-27T11:05:13.503Z,20.56
2023-06-27T11:06:13.424Z,20.34
2023-06-27T11:07:13.458Z,20.21
2023-06-27T11:08:13.407Z,20.03
2023-06-27T11:09:13.351Z,19.95
2023-06-27T11:10:13.371Z,19.88
2023-06-27T11:11:13.326Z,19.81
2023-06-27T11:12:13.348Z,19.64
2023-06-27T11:13:13.358Z,19.67
2023-06-27T11:14:13.290Z,19.52
2023-06-27T11:15:13.307Z,19.48
2023-06-27T11:16:13.309Z,19.40
2023-06-27T11:17:13.263Z,19.39
2023-06-27T11:18:13.300Z,19.44
2023-06-27T11:19:19.943Z,19.27
2023-06-27T11:20:14.544Z,19.26
2023-06-27T11:21:15.088Z,19.24
2023-06-27T11:22:13.215Z,19.34
2023-06-27T11:23:13.194Z,19.34
2023-06-27T11:24:13.255Z,19.40
2023-06-27T11:25:13.189Z,19.39
2023-06-27T11:26:13.158Z,19.39
2023-06-27T11:27:13.151Z,19.40
2023-06-27T11:28:13.140Z,19.41
2023-06-27T11:29:13.120Z,19.39
2023-06-27T11:30:13.147Z,19.41
2023-06-27T11:31:13.177Z,19.39
2023-06-27T11:32:13.097Z,19.37
2023-06-27T11:33:13.130Z,19.39
2023-06-27T11:34:13.064Z,19.40
2023-06-27T11:35:13.054Z,19.45
2023-06-27T11:36:13.088Z,19.48
2023-06-27T11:37:13.101Z,19.52
2023-06-27T11:38:13.065Z,19.52
2023-06-27T11:39:13.016Z,19.66
2023-06-27T11:40:13.002Z,19.79
2023-06-27T11:41:12.991Z,20.00
2023-06-27T11:42:12.976Z,19.95
2023-06-27T11:43:13.002Z,19.92
2023-06-27T11:44:12.961Z,20.00
2023-06-27T11:45:12.943Z,20.06
2023-06-27T11:46:12.936Z,20.07
2023-06-27T11:47:12.920Z,20.11
2023-06-27T11:48:12.922Z,20.16
2023-06-27T11:49:12.931Z,20.21
2023-06-27T11:50:12.885Z,20.22
2023-06-27T11:51:12.904Z,20.29
2023-06-27T11:52:12.900Z,20.29
2023-06-27T11:53:12.853Z,20.34
2023-06-27T11:54:12.839Z,20.36
2023-06-27T11:55:12.864Z,20.36
2023-06-27T11:56:21.295Z,20.39
2023-06-27T11:57:13.807Z,20.52
2023-06-27T11:58:12.797Z,20.55
2023-06-27T11:59:12.788Z,20.51
2023-06-27T12:00:12.772Z,20.50
2023-06-27T12:01:12.841Z,20.56
2023-06-27T12:02:12.747Z,20.50
2023-06-27T12:03:12.882Z,20.44
2023-06-27T12:04:12.897Z,20.39
2023-06-27T12:05:12.717Z,20.40
2023-06-27T12:06:12.707Z,20.47
2023-06-27T12:07:12.803Z,20.48
2023-06-27T12:08:12.708Z,20.50
2023-06-27T12:09:12.671Z,20.51
2023-06-27T12:10:12.661Z,20.51
2023-06-27T12:11:12.654Z,20.51
2023-06-27T12:12:12.635Z,20.55
2023-06-27T12:13:12.669Z,20.50
2023-06-27T12:14:12.621Z,20.52
2023-06-27T12:15:12.610Z,20.58
2023-06-27T12:16:12.609Z,20.62
2023-06-27T12:17:12.578Z,20.72
2023-06-27T12:18:12.578Z,20.78
2023-06-27T12:19:12.597Z,20.80
2023-06-27T12:20:12.622Z,20.95
2023-06-27T12:21:12.621Z,20.96
2023-06-27T12:22:12.525Z,21.02
2023-06-27T12:23:12.518Z,20.93
2023-06-27T12:24:12.587Z,20.96
2023-06-27T12:25:12.513Z,21.07
2023-06-27T12:26:12.480Z,21.09
2023-06-27T12:27:12.464Z,20.99
2023-06-27T12:28:12.464Z,21.06
2023-06-27T12:29:12.480Z,21.06
2023-06-27T12:30:12.441Z,21.05
2023-06-27T12:31:12.575Z,21.14
2023-06-27T12:32:12.415Z,21.22
2023-06-27T12:33:12.400Z,21.15
2023-06-27T12:34:12.400Z,21.25
2023-06-27T12:35:12.384Z,21.27
2023-06-27T12:36:12.367Z,21.29
2023-06-27T12:37:12.410Z,21.27
2023-06-27T12:38:12.347Z,21.33
2023-06-27T12:39:12.330Z,21.36
2023-06-27T12:40:12.401Z,21.42
2023-06-27T12:41:12.345Z,21.39
2023-06-27T12:42:12.301Z,21.50
2023-06-27T12:43:12.342Z,21.46
2023-06-27T12:44:12.273Z,21.51
2023-06-27T12:45:12.262Z,21.51
2023-06-27T12:46:12.252Z,21.54
2023-06-27T12:47:12.248Z,21.55
2023-06-27T12:48:12.306Z,21.52
2023-06-27T12:49:12.264Z,21.43
2023-06-27T12:50:12.212Z,21.50
2023-06-27T12:51:12.231Z,21.46
2023-06-27T12:52:12.190Z,21.42
2023-06-27T12:53:12.218Z,21.36
2023-06-27T12:54:12.163Z,21.36
2023-06-27T12:55:12.235Z,21.35
2023-06-27T12:56:12.237Z,21.30
2023-06-27T12:57:12.147Z,21.36
2023-06-27T12:58:12.120Z,21.33
2023-06-27T12:59:12.129Z,21.35
2023-06-27T13:00:12.098Z,21.33
2023-06-27T13:01:12.332Z,21.30
2023-06-27T13:02:12.120Z,21.39
2023-06-27T13:03:18.435Z,21.29
2023-06-27T13:04:13.046Z,21.25
2023-06-27T13:05:12.037Z,21.24
2023-06-27T13:06:12.034Z,21.30
2023-06-27T13:07:12.106Z,21.24
2023-06-27T13:08:12.038Z,21.25
2023-06-27T13:09:12.034Z,21.25
2023-06-27T13:10:11.978Z,21.24
2023-06-27T13:11:12.021Z,21.29
2023-06-27T13:12:12.052Z,21.36
2023-06-27T13:13:11.979Z,21.43
2023-06-27T13:14:11.936Z,21.46
2023-06-27T13:15:11.931Z,21.61